createdAt,value
2022-12-17T00:01:56.449Z,28.73
2022-12-17T00:04:42.506Z,28.17
2022-12-17T00:07:28.322Z,30.40
2022-12-17T00:10:14.289Z,28.90
2022-12-17T00:13:00.169Z,28.30
2022-12-17T00:15:46.060Z,31.10
2022-12-17T00:18:32.200Z,31.23
2022-12-17T00:21:19.267Z,32.30
2022-12-17T00:24:05.816Z,32.73
2022-12-17T00:26:51.806Z,32.93
2022-12-17T00:29:37.597Z,34.10
2022-12-17T00:32:23.623Z,29.90
2022-12-17T00:35:09.577Z,31.73
2022-12-17T00:37:55.603Z,34.27
2022-12-17T00:40:42.039Z,32.63
2022-12-17T00:43:29.764Z,32.50
2022-12-17T00:46:15.969Z,31.17
2022-12-17T00:49:01.592Z,30.93
2022-12-17T00:51:47.661Z,33.87
2022-12-17T00:54:33.597Z,30.27
2022-12-17T00:57:19.487Z,30.47
2022-12-17T01:00:05.445Z,30.40
2022-12-17T01:02:51.518Z,31.07
2022-12-17T01:05:37.951Z,31.33
2022-12-17T01:08:31.359Z,31.63
2022-12-17T01:11:24.074Z,32.03
2022-12-17T01:14:09.885Z,31.63
2022-12-17T01:16:56.297Z,30.03
2022-12-17T01:19:42.184Z,30.33
2022-12-17T01:22:28.108Z,29.53
2022-12-17T01:25:14.051Z,29.97
2022-12-17T01:28:00.027Z,29.63
2022-12-17T01:30:46.009Z,28.77
2022-12-17T01:33:31.880Z,26.80
2022-12-17T01:36:20.823Z,28.43
2022-12-17T01:39:06.716Z,28.93
2022-12-17T01:41:52.711Z,27.90
2022-12-17T01:44:58.060Z,25.77
2022-12-17T01:47:48.976Z,25.90
2022-12-17T01:50:36.410Z,26.83
2022-12-17T01:53:24.658Z,28.07
2022-12-17T01:56:11.124Z,27.53
2022-12-17T01:58:57.916Z,26.93
2022-12-17T02:01:43.864Z,25.67
2022-12-17T02:04:30.765Z,25.87
2022-12-17T02:07:31.411Z,25.73
2022-12-17T02:10:19.928Z,26.30
2022-12-17T02:13:13.972Z,25.73
2022-12-17T02:16:06.969Z,27.90
2022-12-17T02:18:59.243Z,25.80
2022-12-17T02:21:48.367Z,26.07
2022-12-17T02:24:44.407Z,26.83
2022-12-17T02:27:41.135Z,27.63
2022-12-17T02:30:27.740Z,25.87
2022-12-17T02:33:14.241Z,24.10
2022-12-17T02:36:01.627Z,27.47
2022-12-17T02:38:48.887Z,26.83
2022-12-17T02:41:39.102Z,26.50
2022-12-17T02:44:25.855Z,27.50
2022-12-17T02:47:12.498Z,24.97
2022-12-17T02:49:58.721Z,25.23
2022-12-17T02:52:46.243Z,25.20
2022-12-17T02:55:32.844Z,25.90
2022-12-17T02:58:18.857Z,26.07
2022-12-17T03:01:04.984Z,26.63
2022-12-17T03:03:50.760Z,26.87
2022-12-17T03:06:41.614Z,26.67
2022-12-17T03:09:27.536Z,26.70
2022-12-17T03:12:13.495Z,26.83
2022-12-17T03:14:59.434Z,27.37
2022-12-17T03:17:45.229Z,26.13
2022-12-17T03:20:31.219Z,26.23
2022-12-17T03:23:28.093Z,26.07
2022-12-17T03:26:17.055Z,24.90
2022-12-17T03:29:02.837Z,27.50
2022-12-17T03:31:48.696Z,26.40
2022-12-17T03:34:34.670Z,26.23
2022-12-17T03:37:20.615Z,29.50
2022-12-17T03:40:06.456Z,28.03
2022-12-17T03:42:52.296Z,28.27
2022-12-17T03:45:38.155Z,27.63
2022-12-17T03:48:28.075Z,27.23
2022-12-17T03:51:14.508Z,28.40
2022-12-17T03:54:01.906Z,29.83
2022-12-17T03:56:48.120Z,28.43
2022-12-17T03:59:33.912Z,28.73
2022-12-17T04:02:20.277Z,29.17
2022-12-17T04:05:06.148Z,28.60
2022-12-17T04:07:52.043Z,28.50
2022-12-17T04:10:38.055Z,29.47
2022-12-17T04:13:23.839Z,28.33
2022-12-17T04:16:11.242Z,29.90
2022-12-17T04:18:57.150Z,28.97
2022-12-17T04:21:42.999Z,27.70
2022-12-17T04:24:28.846Z,28.83
2022-12-17T04:27:14.543Z,29.30
2022-12-17T04:30:00.495Z,25.87
2022-12-17T04:32:46.494Z,26.77
2022-12-17T04:35:31.992Z,26.80
2022-12-17T04:38:17.722Z,25.70
2022-12-17T04:41:03.597Z,28.07
2022-12-17T04:43:49.600Z,27.43
2022-12-17T04:46:35.594Z,28.47
2022-12-17T04:49:21.569Z,27.07
2022-12-17T04:52:07.457Z,26.03
2022-12-17T04:54:53.116Z,27.23
2022-12-17T04:57:38.948Z,25.37
2022-12-17T05:00:24.813Z,26.30
2022-12-17T05:03:10.688Z,25.37
2022-12-17T05:05:56.433Z,24.27
2022-12-17T05:08:42.342Z,25.47
2022-12-17T05:11:28.402Z,26.97
2022-12-17T05:14:14.365Z,24.97
2022-12-17T05:17:00.423Z,25.90
2022-12-17T05:19:46.006Z,25.60
2022-12-17T05:22:31.906Z,23.33
2022-12-17T05:25:17.671Z,25.27
2022-12-17T05:28:05.203Z,27.97
2022-12-17T05:30:51.233Z,21.50
2022-12-17T05:33:39.558Z,24.03
2022-12-17T05:36:25.602Z,23.57
2022-12-17T05:39:11.514Z,24.37
2022-12-17T05:41:57.432Z,24.60
2022-12-17T05:44:43.345Z,23.67
2022-12-17T05:47:29.219Z,25.33
2022-12-17T05:50:15.290Z,24.60
2022-12-17T05:53:01.113Z,24.37
2022-12-17T05:55:46.876Z,25.93
2022-12-17T05:58:32.754Z,23.47
2022-12-17T06:01:20.597Z,23.07
2022-12-17T06:04:06.638Z,26.40
2022-12-17T06:06:52.730Z,27.70
2022-12-17T06:09:38.816Z,23.47
2022-12-17T06:12:38.512Z,24.37
2022-12-17T06:15:24.527Z,24.53
2022-12-17T06:18:16.964Z,22.93
2022-12-17T06:21:03.409Z,24.40
2022-12-17T06:23:49.209Z,24.27
2022-12-17T06:26:34.861Z,24.70
2022-12-17T06:29:20.747Z,24.80
2022-12-17T06:32:06.703Z,24.73
2022-12-17T06:34:52.431Z,21.43
2022-12-17T06:37:38.476Z,23.60
2022-12-17T06:40:24.664Z,21.80
2022-12-17T06:43:13.537Z,21.80
2022-12-17T06:45:59.393Z,22.60
2022-12-17T06:48:45.444Z,22.07
2022-12-17T06:51:31.372Z,20.80
2022-12-17T06:54:17.132Z,19.27
2022-12-17T06:57:03.075Z,20.07
2022-12-17T06:59:49.085Z,20.77
2022-12-17T07:02:36.630Z,21.03
2022-12-17T07:05:23.802Z,19.17
2022-12-17T07:08:19.756Z,21.83
2022-12-17T07:11:05.969Z,21.03
2022-12-17T07:13:51.727Z,22.63
2022-12-17T07:19:27.482Z,24.10
2022-12-17T07:22:13.265Z,20.67
2022-12-17T07:24:59.241Z,20.70
2022-12-17T07:27:44.971Z,19.30
2022-12-17T07:30:30.985Z,20.60
2022-12-17T07:33:17.748Z,20.17
2022-12-17T07:36:03.645Z,20.47
2022-12-17T07:38:49.796Z,23.53
2022-12-17T07:41:35.827Z,20.97
2022-12-17T07:44:21.605Z,20.20
2022-12-17T07:47:07.372Z,21.33
2022-12-17T07:49:53.259Z,21.93
2022-12-17T07:52:39.352Z,20.13
2022-12-17T07:55:25.275Z,22.00
2022-12-17T07:58:20.865Z,20.47
2022-12-17T08:01:06.887Z,19.63
2022-12-17T08:03:52.458Z,18.77
2022-12-17T08:06:38.502Z,17.33
2022-12-17T08:09:24.039Z,19.03
2022-12-17T08:12:26.819Z,19.77
2022-12-17T08:15:12.804Z,20.00
2022-12-17T08:17:58.734Z,19.23
2022-12-17T08:20:44.593Z,20.07
2022-12-17T08:23:30.491Z,21.50
2022-12-17T08:26:16.190Z,22.57
2022-12-17T08:29:01.970Z,23.23
2022-12-17T08:31:47.782Z,22.30
2022-12-17T08:34:34.869Z,24.33
2022-12-17T08:37:20.601Z,22.90
2022-12-17T08:40:06.430Z,23.47
2022-12-17T08:42:52.281Z,23.80
2022-12-17T08:45:38.256Z,24.30
2022-12-17T08:48:25.354Z,21.97
2022-12-17T08:51:11.273Z,24.43
2022-12-17T08:53:56.879Z,23.40
2022-12-17T08:56:42.884Z,24.07
2022-12-17T08:59:28.803Z,24.63
2022-12-17T09:02:14.926Z,24.30
2022-12-17T09:05:01.016Z,21.80
2022-12-17T09:07:46.992Z,22.57
2022-12-17T09:10:32.772Z,21.67
2022-12-17T09:13:21.807Z,32.93
2022-12-17T09:16:11.450Z,23.77
2022-12-17T09:18:57.450Z,25.93
2022-12-17T09:21:43.315Z,23.83
2022-12-17T09:24:29.754Z,23.13
2022-12-17T09:27:15.635Z,23.40
2022-12-17T09:30:01.541Z,24.07
2022-12-17T09:32:47.432Z,24.50
2022-12-17T09:35:33.248Z,20.73
2022-12-17T09:38:19.155Z,22.47
2022-12-17T09:41:06.106Z,20.27
2022-12-17T09:44:07.107Z,21.43
2022-12-17T09:46:58.384Z,22.67
2022-12-17T09:49:46.003Z,20.67
2022-12-17T09:52:44.114Z,18.60
2022-12-17T09:55:34.656Z,19.60
2022-12-17T09:58:20.825Z,17.23
2022-12-17T10:01:06.509Z,20.67
2022-12-17T10:03:53.431Z,20.30
2022-12-17T10:06:41.999Z,21.43
2022-12-17T10:09:32.861Z,22.63
2022-12-17T10:12:35.749Z,21.20
2022-12-17T10:15:21.920Z,23.37
2022-12-17T10:18:07.962Z,23.03
2022-12-17T10:20:58.724Z,22.53
2022-12-17T10:23:48.957Z,26.50
2022-12-17T10:26:37.662Z,25.13
2022-12-17T10:29:31.221Z,26.50
2022-12-17T10:32:29.164Z,27.13
2022-12-17T10:35:15.137Z,26.10
2022-12-17T10:38:00.935Z,24.90
2022-12-17T10:40:48.032Z,28.60
2022-12-17T10:43:41.421Z,27.00
2022-12-17T10:46:27.461Z,26.00
2022-12-17T10:49:23.147Z,25.73
2022-12-17T10:52:09.536Z,23.87
2022-12-17T10:57:25.768Z,21.53
2022-12-17T11:00:11.500Z,21.87
2022-12-17T11:02:57.682Z,22.53
2022-12-17T11:05:46.630Z,21.80
2022-12-17T11:08:34.016Z,21.87
2022-12-17T11:11:25.768Z,21.40
2022-12-17T11:14:11.667Z,22.00
2022-12-17T11:17:08.147Z,21.80
2022-12-17T11:19:57.342Z,21.83
2022-12-17T11:23:01.905Z,20.07
2022-12-17T11:25:47.869Z,22.53
2022-12-17T11:28:36.678Z,19.00
2022-12-17T11:31:45.136Z,21.70
2022-12-17T11:34:45.940Z,21.50
2022-12-17T11:37:34.472Z,20.27
2022-12-17T11:40:49.218Z,20.23
2022-12-17T11:43:38.716Z,20.00
2022-12-17T11:46:33.270Z,20.87
2022-12-17T11:49:27.879Z,19.03
2022-12-17T11:52:17.821Z,18.40
2022-12-17T11:55:03.813Z,19.07
2022-12-17T11:57:55.183Z,19.33
2022-12-17T12:00:42.633Z,20.20
2022-12-17T12:03:31.358Z,18.93
2022-12-17T12:06:18.116Z,19.03
2022-12-17T12:09:06.572Z,19.63
2022-12-17T12:11:59.630Z,20.17
2022-12-17T12:14:58.828Z,17.80
2022-12-17T12:17:47.346Z,19.83
2022-12-17T12:20:41.109Z,18.77
2022-12-17T12:23:49.553Z,18.60
2022-12-17T12:26:37.298Z,19.60
2022-12-17T12:29:32.020Z,19.13
2022-12-17T12:32:23.600Z,18.77
2022-12-17T12:35:10.572Z,20.53
2022-12-17T12:37:56.900Z,20.90
2022-12-17T12:40:59.482Z,22.07
2022-12-17T12:43:57.268Z,20.07
2022-12-17T12:46:48.958Z,18.70
2022-12-17T12:49:35.010Z,19.80
2022-12-17T12:52:21.013Z,17.90
2022-12-17T12:55:07.009Z,17.97
2022-12-17T12:57:57.252Z,18.00
2022-12-17T13:00:43.050Z,23.17
2022-12-17T13:03:48.106Z,18.37
2022-12-17T13:06:35.785Z,20.00
2022-12-17T13:09:22.521Z,23.30
2022-12-17T13:12:05.994Z,18.83
2022-12-17T13:14:46.696Z,18.53
2022-12-17T13:17:13.825Z,18.77
2022-12-17T13:19:42.745Z,20.40
2022-12-17T13:22:28.240Z,19.03
2022-12-17T13:24:57.742Z,19.63
2022-12-17T13:27:39.218Z,19.03
2022-12-17T13:30:18.651Z,18.67
2022-12-17T13:33:12.093Z,18.90
2022-12-17T13:35:46.990Z,19.97
2022-12-17T13:38:19.437Z,17.43
2022-12-17T13:41:05.274Z,19.47
2022-12-17T13:43:58.657Z,18.87
2022-12-17T13:46:30.509Z,18.83
2022-12-17T13:49:01.988Z,18.40
2022-12-17T13:51:31.116Z,19.17
2022-12-17T13:53:59.306Z,18.57
2022-12-17T13:56:30.938Z,17.70
2022-12-17T13:59:03.166Z,18.13
2022-12-17T14:01:33.568Z,19.50
2022-12-17T14:04:06.617Z,21.03
2022-12-17T14:06:35.955Z,19.57
2022-12-17T14:09:03.595Z,20.73
2022-12-17T14:11:49.659Z,19.87
2022-12-17T14:14:28.131Z,23.73
2022-12-17T14:16:55.542Z,18.67
2022-12-17T14:19:23.157Z,18.77
2022-12-17T14:21:50.407Z,20.07
2022-12-17T14:24:18.403Z,19.50
2022-12-17T14:26:52.280Z,18.73
2022-12-17T14:29:23.563Z,18.83
2022-12-17T14:31:57.667Z,18.80
2022-12-17T14:34:25.200Z,17.93
2022-12-17T14:36:59.115Z,18.53
2022-12-17T14:39:30.221Z,18.60
2022-12-17T14:42:17.302Z,19.77
2022-12-17T14:45:10.559Z,19.47
2022-12-17T14:47:38.376Z,20.23
2022-12-17T14:50:14.385Z,21.10
2022-12-17T14:52:54.805Z,21.93
2022-12-17T14:55:28.156Z,19.93
2022-12-17T14:58:07.489Z,21.77
2022-12-17T15:00:35.117Z,21.47
2022-12-17T15:03:02.490Z,22.20
2022-12-17T15:05:29.966Z,21.23
2022-12-17T15:07:57.116Z,24.10
2022-12-17T15:10:24.389Z,22.23
2022-12-17T15:12:52.886Z,23.97
2022-12-17T15:15:21.670Z,26.73
2022-12-17T15:17:48.815Z,24.33
2022-12-17T15:20:20.712Z,26.07
2022-12-17T15:22:48.467Z,26.43
2022-12-17T15:25:17.908Z,25.53
2022-12-17T15:27:45.035Z,25.30
2022-12-17T15:30:15.969Z,25.77
2022-12-17T15:32:43.306Z,23.23
2022-12-17T15:35:28.420Z,25.33
2022-12-17T15:37:55.907Z,24.50
2022-12-17T15:40:22.988Z,24.77
2022-12-17T15:43:08.699Z,24.67
2022-12-17T15:45:35.807Z,24.03
2022-12-17T15:48:02.895Z,25.67
2022-12-17T15:50:30.232Z,25.17
2022-12-17T15:52:57.322Z,26.47
2022-12-17T15:55:24.490Z,28.07
2022-12-17T15:57:51.528Z,26.93
2022-12-17T16:00:18.674Z,26.67
2022-12-17T16:02:45.941Z,27.60
2022-12-17T16:05:13.229Z,26.73
2022-12-17T16:07:40.342Z,26.67
2022-12-17T16:10:07.497Z,24.60
2022-12-17T16:12:34.629Z,25.83
2022-12-17T16:15:01.690Z,26.27
2022-12-17T16:17:28.923Z,24.83
2022-12-17T16:19:55.948Z,27.47
2022-12-17T16:22:23.070Z,26.53
2022-12-17T16:24:52.636Z,26.27
2022-12-17T16:27:20.096Z,24.77
2022-12-17T16:29:48.190Z,25.13
2022-12-17T16:32:15.859Z,22.60
2022-12-17T16:34:43.133Z,23.40
2022-12-17T16:37:10.280Z,24.60
2022-12-17T16:39:37.607Z,23.47
2022-12-17T16:42:04.949Z,23.80
2022-12-17T16:44:32.121Z,23.43
2022-12-17T16:46:59.814Z,22.43
2022-12-17T16:49:27.184Z,24.27
2022-12-17T16:51:57.767Z,22.23
2022-12-17T16:54:26.656Z,23.00
2022-12-17T16:56:54.175Z,23.43
2022-12-17T16:59:22.146Z,24.40
2022-12-17T17:01:49.813Z,25.00
2022-12-17T17:04:17.652Z,24.13
2022-12-17T17:06:46.141Z,24.30
2022-12-17T17:09:13.981Z,22.43
2022-12-17T17:11:41.069Z,20.13
2022-12-17T17:14:09.044Z,22.57
2022-12-17T17:16:36.881Z,30.73
2022-12-17T17:19:06.921Z,22.10
2022-12-17T17:21:38.669Z,23.93
2022-12-17T17:24:16.765Z,22.60
2022-12-17T17:26:47.974Z,24.87
2022-12-17T17:29:15.229Z,23.73
2022-12-17T17:34:29.390Z,25.80
2022-12-17T17:36:56.507Z,27.03
2022-12-17T17:39:23.688Z,26.27
2022-12-17T17:41:50.748Z,23.27
2022-12-17T17:44:17.793Z,23.67
2022-12-17T17:46:45.323Z,24.53
2022-12-17T17:49:12.739Z,24.17
2022-12-17T17:54:31.105Z,22.03
2022-12-17T17:56:58.180Z,21.90
2022-12-17T17:59:31.173Z,21.23
2022-12-17T18:02:00.890Z,21.33
2022-12-17T18:04:28.329Z,22.40
2022-12-17T18:07:24.256Z,21.23
2022-12-17T18:09:42.733Z,21.27
2022-12-17T18:12:28.460Z,20.93
2022-12-17T18:17:42.695Z,18.13
2022-12-17T18:20:17.547Z,18.63
2022-12-17T18:22:45.950Z,18.83
2022-12-17T18:25:13.595Z,19.00
2022-12-17T18:27:42.517Z,20.53
2022-12-17T18:30:10.084Z,19.77
2022-12-17T18:32:37.366Z,21.47
2022-12-17T18:35:04.545Z,19.80
2022-12-17T18:37:31.689Z,20.90
2022-12-17T18:39:58.797Z,21.23
2022-12-17T18:42:44.370Z,19.77
2022-12-17T18:45:11.502Z,21.47
2022-12-17T18:47:38.591Z,21.33
2022-12-17T18:50:05.898Z,20.63
2022-12-17T18:52:32.950Z,21.73
2022-12-17T18:55:00.010Z,21.10
2022-12-17T18:57:27.059Z,18.77
2022-12-17T18:59:54.168Z,20.43
2022-12-17T19:02:21.290Z,18.10
2022-12-17T19:04:48.463Z,20.23
2022-12-17T19:07:15.505Z,20.27
2022-12-17T19:09:42.645Z,20.07
2022-12-17T19:12:10.317Z,22.10
2022-12-17T19:14:37.589Z,21.83
2022-12-17T19:17:05.843Z,21.37
2022-12-17T19:19:33.555Z,20.23
2022-12-17T19:22:00.797Z,21.63
2022-12-17T19:24:28.011Z,20.30
2022-12-17T19:26:55.119Z,21.83
2022-12-17T19:29:22.292Z,20.03
2022-12-17T19:31:49.468Z,19.47
2022-12-17T19:34:18.235Z,20.23
2022-12-17T19:36:45.757Z,25.13
2022-12-17T19:39:14.047Z,22.60
2022-12-17T19:41:41.173Z,22.97
2022-12-17T19:44:11.737Z,21.50
2022-12-17T19:46:39.089Z,22.60
2022-12-17T19:49:06.210Z,24.27
2022-12-17T19:51:33.630Z,21.10
2022-12-17T19:54:08.097Z,22.60
2022-12-17T19:56:36.463Z,21.47
2022-12-17T19:59:06.774Z,21.50
2022-12-17T20:01:38.265Z,21.83
2022-12-17T20:04:06.269Z,22.23
2022-12-17T20:06:34.721Z,22.20
2022-12-17T20:09:02.380Z,21.60
2022-12-17T20:11:35.851Z,20.63
2022-12-17T20:14:09.190Z,21.63
2022-12-17T20:16:37.708Z,20.27
2022-12-17T20:19:06.819Z,21.20
2022-12-17T20:21:33.940Z,21.60
2022-12-17T20:24:01.055Z,20.77
2022-12-17T20:26:28.190Z,22.03
2022-12-17T20:28:59.229Z,21.13
2022-12-17T20:31:27.008Z,23.03
2022-12-17T20:34:05.661Z,21.90
2022-12-17T20:36:33.843Z,20.87
2022-12-17T20:39:01.080Z,22.23
2022-12-17T20:41:29.164Z,19.20
2022-12-17T20:44:09.749Z,19.67
2022-12-17T20:46:37.268Z,18.17
2022-12-17T20:49:05.607Z,18.97
2022-12-17T20:51:34.103Z,17.10
2022-12-17T20:54:02.581Z,18.30
2022-12-17T20:56:30.933Z,17.17
2022-12-17T20:58:59.099Z,17.77
2022-12-17T21:01:27.236Z,18.13
2022-12-17T21:03:55.180Z,17.97
2022-12-17T21:06:23.895Z,17.17
2022-12-17T21:08:54.604Z,17.77
2022-12-17T21:11:23.493Z,17.43
2022-12-17T21:13:53.312Z,16.77
2022-12-17T21:16:22.496Z,15.87
2022-12-17T21:18:50.001Z,16.67
2022-12-17T21:21:19.213Z,16.17
2022-12-17T21:23:47.094Z,16.10
2022-12-17T21:26:15.633Z,14.77
2022-12-17T21:28:45.474Z,16.43
2022-12-17T21:31:19.332Z,16.80
2022-12-17T21:33:49.731Z,15.40
2022-12-17T21:36:18.837Z,17.37
2022-12-17T21:38:46.609Z,17.20
2022-12-17T21:41:14.696Z,16.70
2022-12-17T21:43:41.879Z,17.27
2022-12-17T21:46:09.883Z,17.13
2022-12-17T21:48:42.400Z,17.73
2022-12-17T21:51:10.921Z,17.17
2022-12-17T21:53:43.463Z,17.47
2022-12-17T21:56:15.271Z,16.27
2022-12-17T21:58:43.487Z,19.33
2022-12-17T22:01:18.923Z,15.60
2022-12-17T22:03:46.940Z,17.70
2022-12-17T22:06:16.526Z,15.60
2022-12-17T22:08:44.626Z,16.87
2022-12-17T22:11:12.780Z,18.03
2022-12-17T22:14:06.882Z,17.07
2022-12-17T22:16:42.980Z,16.80
2022-12-17T22:19:11.581Z,16.83
2022-12-17T22:21:40.316Z,18.00
2022-12-17T22:24:07.863Z,17.67
2022-12-17T22:30:09.622Z,17.87
2022-12-17T22:32:55.613Z,17.67
2022-12-17T22:36:34.507Z,18.33
2022-12-17T22:42:19.604Z,15.87
2022-12-17T22:44:36.459Z,15.63
2022-12-17T22:44:41.944Z,17.30
2022-12-17T22:46:51.230Z,18.27
2022-12-17T22:49:18.620Z,16.17
2022-12-17T22:51:45.992Z,16.90
2022-12-17T22:54:14.490Z,18.23
2022-12-17T22:57:35.129Z,16.57
2022-12-17T22:59:30.898Z,16.30
2022-12-17T23:01:57.996Z,19.13
2022-12-17T23:04:25.164Z,16.13
2022-12-17T23:06:52.352Z,17.67
2022-12-17T23:09:20.117Z,15.37
2022-12-17T23:11:48.047Z,17.50
2022-12-17T23:14:15.430Z,17.27
2022-12-17T23:16:42.601Z,20.57
2022-12-17T23:19:09.858Z,18.77
2022-12-17T23:21:37.038Z,17.53
2022-12-17T23:24:29.010Z,17.23
2022-12-17T23:26:56.161Z,19.63
2022-12-17T23:29:23.188Z,19.40
2022-12-17T23:31:51.182Z,17.00
2022-12-17T23:34:19.759Z,18.60
2022-12-17T23:36:46.917Z,16.67
2022-12-17T23:39:14.037Z,17.50
2022-12-17T23:41:41.253Z,18.57
2022-12-17T23:46:44.429Z,19.23
2022-12-17T23:49:11.553Z,19.30
2022-12-17T23:51:38.657Z,17.60
2022-12-17T23:54:05.800Z,17.63
2022-12-17T23:56:36.710Z,19.00
2022-12-17T23:59:03.862Z,19.23
